sensor_id;sensor_type;location;lat;lon;timestamp;P1;durP1;ratioP1;P2;durP2;ratioP2
31347;SDS011;21711;49.708;18.568;2022-10-31T00:01:25;7.32;;;3.90;;
31347;SDS011;21711;49.708;18.568;2022-10-31T00:03:55;8.25;;;3.40;;
31347;SDS011;21711;49.708;18.568;2022-10-31T00:06:22;9.45;;;4.25;;
31347;SDS011;21711;49.708;18.568;2022-10-31T00:09:00;8.65;;;3.45;;
31347;SDS011;21711;49.708;18.568;2022-10-31T00:11:30;8.32;;;3.80;;
31347;SDS011;21711;49.708;18.568;2022-10-31T00:13:58;10.52;;;3.63;;
31347;SDS011;21711;49.708;18.568;2022-10-31T00:16:26;9.32;;;4.15;;
31347;SDS011;21711;49.708;18.568;2022-10-31T00:18:55;9.25;;;3.67;;
31347;SDS011;21711;49.708;18.568;2022-10-31T00:21:26;10.45;;;4.15;;
31347;SDS011;21711;49.708;18.568;2022-10-31T00:23:55;9.98;;;3.45;;
31347;SDS011;21711;49.708;18.568;2022-10-31T00:26:24;10.88;;;4.18;;
31347;SDS011;21711;49.708;18.568;2022-10-31T00:28:54;11.32;;;4.53;;
31347;SDS011;21711;49.708;18.568;2022-10-31T00:31:21;8.82;;;3.67;;
31347;SDS011;21711;49.708;18.568;2022-10-31T00:33:48;10.20;;;3.25;;
31347;SDS011;21711;49.708;18.568;2022-10-31T00:36:18;10.93;;;3.33;;
31347;SDS011;21711;49.708;18.568;2022-10-31T00:38:47;8.60;;;3.90;;
31347;SDS011;21711;49.708;18.568;2022-10-31T00:41:15;9.77;;;4.20;;
31347;SDS011;21711;49.708;18.568;2022-10-31T00:43:44;7.03;;;3.50;;
31347;SDS011;21711;49.708;18.568;2022-10-31T00:46:12;11.15;;;3.97;;
31347;SDS011;21711;49.708;18.568;2022-10-31T00:48:40;7.38;;;3.65;;
31347;SDS011;21711;49.708;18.568;2022-10-31T00:51:08;9.73;;;4.18;;
31347;SDS011;21711;49.708;18.568;2022-10-31T00:53:36;14.20;;;3.78;;
31347;SDS011;21711;49.708;18.568;2022-10-31T00:56:03;8.88;;;4.00;;
31347;SDS011;21711;49.708;18.568;2022-10-31T00:58:31;10.13;;;4.18;;
31347;SDS011;21711;49.708;18.568;2022-10-31T01:01:00;5.80;;;3.08;;
31347;SDS011;21711;49.708;18.568;2022-10-31T01:03:29;8.27;;;3.70;;
31347;SDS011;21711;49.708;18.568;2022-10-31T01:08:37;8.52;;;3.65;;
31347;SDS011;21711;49.708;18.568;2022-10-31T01:11:15;15.93;;;5.03;;
31347;SDS011;21711;49.708;18.568;2022-10-31T01:13:45;12.57;;;4.43;;
31347;SDS011;21711;49.708;18.568;2022-10-31T01:16:15;8.45;;;3.47;;
31347;SDS011;21711;49.708;18.568;2022-10-31T01:18:49;14.13;;;4.93;;
31347;SDS011;21711;49.708;18.568;2022-10-31T01:21:25;7.28;;;3.28;;
31347;SDS011;21711;49.708;18.568;2022-10-31T01:23:57;8.43;;;4.00;;
31347;SDS011;21711;49.708;18.568;2022-10-31T01:26:25;9.90;;;3.78;;
31347;SDS011;21711;49.708;18.568;2022-10-31T01:28:57;10.65;;;3.67;;
31347;SDS011;21711;49.708;18.568;2022-10-31T01:31:28;13.27;;;4.43;;
31347;SDS011;21711;49.708;18.568;2022-10-31T01:33:58;7.85;;;3.35;;
31347;SDS011;21711;49.708;18.568;2022-10-31T01:36:27;10.73;;;3.75;;
31347;SDS011;21711;49.708;18.568;2022-10-31T01:39:06;7.88;;;3.63;;
31347;SDS011;21711;49.708;18.568;2022-10-31T01:41:44;7.63;;;3.67;;
31347;SDS011;21711;49.708;18.568;2022-10-31T01:46:49;13.30;;;4.45;;
31347;SDS011;21711;49.708;18.568;2022-10-31T01:54:44;11.27;;;4.57;;
31347;SDS011;21711;49.708;18.568;2022-10-31T01:57:18;9.38;;;4.00;;
31347;SDS011;21711;49.708;18.568;2022-10-31T01:59:51;8.13;;;3.85;;
31347;SDS011;21711;49.708;18.568;2022-10-31T02:02:24;9.43;;;4.03;;
31347;SDS011;21711;49.708;18.568;2022-10-31T02:04:53;11.02;;;4.05;;
31347;SDS011;21711;49.708;18.568;2022-10-31T02:07:25;13.80;;;4.80;;
31347;SDS011;21711;49.708;18.568;2022-10-31T02:10:03;14.90;;;4.90;;
31347;SDS011;21711;49.708;18.568;2022-10-31T02:12:31;12.40;;;5.00;;
31347;SDS011;21711;49.708;18.568;2022-10-31T02:15:01;12.90;;;4.78;;
31347;SDS011;21711;49.708;18.568;2022-10-31T02:17:29;12.55;;;4.97;;
31347;SDS011;21711;49.708;18.568;2022-10-31T02:28:49;11.43;;;5.75;;
31347;SDS011;21711;49.708;18.568;2022-10-31T02:34:21;16.83;;;6.75;;
31347;SDS011;21711;49.708;18.568;2022-10-31T02:39:52;15.02;;;6.85;;
31347;SDS011;21711;49.708;18.568;2022-10-31T02:43:30;13.80;;;6.15;;
31347;SDS011;21711;49.708;18.568;2022-10-31T02:46:32;18.05;;;7.47;;
31347;SDS011;21711;49.708;18.568;2022-10-31T02:52:00;17.73;;;6.80;;
31347;SDS011;21711;49.708;18.568;2022-10-31T02:54:27;15.15;;;5.88;;
31347;SDS011;21711;49.708;18.568;2022-10-31T02:57:03;16.45;;;7.60;;
31347;SDS011;21711;49.708;18.568;2022-10-31T02:59:34;12.73;;;5.88;;
31347;SDS011;21711;49.708;18.568;2022-10-31T03:11:05;12.32;;;5.88;;
31347;SDS011;21711;49.708;18.568;2022-10-31T03:14:09;11.93;;;5.55;;
31347;SDS011;21711;49.708;18.568;2022-10-31T03:16:47;10.98;;;4.93;;
31347;SDS011;21711;49.708;18.568;2022-10-31T03:19:32;14.98;;;5.55;;
31347;SDS011;21711;49.708;18.568;2022-10-31T03:22:15;11.68;;;4.85;;
31347;SDS011;21711;49.708;18.568;2022-10-31T03:24:49;7.22;;;3.80;;
31347;SDS011;21711;49.708;18.568;2022-10-31T03:27:22;11.65;;;4.53;;
31347;SDS011;21711;49.708;18.568;2022-10-31T03:29:54;13.80;;;4.60;;
31347;SDS011;21711;49.708;18.568;2022-10-31T03:32:29;15.57;;;5.25;;
31347;SDS011;21711;49.708;18.568;2022-10-31T03:35:12;13.50;;;3.95;;
31347;SDS011;21711;49.708;18.568;2022-10-31T03:37:42;10.20;;;4.30;;
31347;SDS011;21711;49.708;18.568;2022-10-31T03:40:13;15.90;;;5.13;;
31347;SDS011;21711;49.708;18.568;2022-10-31T03:42:44;10.38;;;4.50;;
31347;SDS011;21711;49.708;18.568;2022-10-31T03:45:22;15.90;;;5.57;;
31347;SDS011;21711;49.708;18.568;2022-10-31T03:47:54;11.18;;;4.72;;
31347;SDS011;21711;49.708;18.568;2022-10-31T03:50:23;14.77;;;4.93;;
31347;SDS011;21711;49.708;18.568;2022-10-31T03:53:03;10.75;;;4.45;;
31347;SDS011;21711;49.708;18.568;2022-10-31T03:55:52;9.95;;;4.38;;
31347;SDS011;21711;49.708;18.568;2022-10-31T03:58:44;11.48;;;5.43;;
31347;SDS011;21711;49.708;18.568;2022-10-31T04:01:39;13.13;;;5.25;;
31347;SDS011;21711;49.708;18.568;2022-10-31T04:04:14;13.73;;;5.82;;
31347;SDS011;21711;49.708;18.568;2022-10-31T04:06:42;12.32;;;6.00;;
31347;SDS011;21711;49.708;18.568;2022-10-31T04:09:12;17.50;;;7.07;;
31347;SDS011;21711;49.708;18.568;2022-10-31T04:11:44;18.38;;;7.97;;
31347;SDS011;21711;49.708;18.568;2022-10-31T04:14:46;22.52;;;8.73;;
31347;SDS011;21711;49.708;18.568;2022-10-31T04:17:17;16.08;;;7.47;;
31347;SDS011;21711;49.708;18.568;2022-10-31T04:19:48;16.50;;;7.07;;
31347;SDS011;21711;49.708;18.568;2022-10-31T04:22:16;19.02;;;8.13;;
31347;SDS011;21711;49.708;18.568;2022-10-31T04:24:44;14.60;;;8.20;;
31347;SDS011;21711;49.708;18.568;2022-10-31T04:27:14;16.08;;;7.85;;
31347;SDS011;21711;49.708;18.568;2022-10-31T04:29:41;26.92;;;9.25;;
31347;SDS011;21711;49.708;18.568;2022-10-31T04:32:14;14.98;;;7.07;;
31347;SDS011;21711;49.708;18.568;2022-10-31T04:34:41;24.33;;;8.23;;
31347;SDS011;21711;49.708;18.568;2022-10-31T04:37:09;18.05;;;8.35;;
31347;SDS011;21711;49.708;18.568;2022-10-31T04:39:37;13.85;;;7.50;;
31347;SDS011;21711;49.708;18.568;2022-10-31T04:42:33;18.02;;;8.40;;
31347;SDS011;21711;49.708;18.568;2022-10-31T04:45:02;15.23;;;7.72;;
31347;SDS011;21711;49.708;18.568;2022-10-31T04:47:32;18.50;;;8.40;;
31347;SDS011;21711;49.708;18.568;2022-10-31T04:50:01;21.33;;;9.73;;
31347;SDS011;21711;49.708;18.568;2022-10-31T04:52:29;17.92;;;8.40;;
31347;SDS011;21711;49.708;18.568;2022-10-31T04:54:56;16.75;;;8.55;;
31347;SDS011;21711;49.708;18.568;2022-10-31T04:57:45;19.23;;;8.75;;
31347;SDS011;21711;49.708;18.568;2022-10-31T05:00:16;26.00;;;8.98;;
31347;SDS011;21711;49.708;18.568;2022-10-31T05:02:49;21.25;;;9.07;;
31347;SDS011;21711;49.708;18.568;2022-10-31T05:05:19;18.63;;;8.82;;
31347;SDS011;21711;49.708;18.568;2022-10-31T05:07:50;20.88;;;8.77;;
31347;SDS011;21711;49.708;18.568;2022-10-31T05:12:54;22.37;;;9.33;;
31347;SDS011;21711;49.708;18.568;2022-10-31T05:15:27;15.50;;;8.15;;
31347;SDS011;21711;49.708;18.568;2022-10-31T05:18:14;19.33;;;8.45;;
31347;SDS011;21711;49.708;18.568;2022-10-31T05:20:59;17.98;;;8.15;;
31347;SDS011;21711;49.708;18.568;2022-10-31T05:23:33;17.02;;;8.77;;
31347;SDS011;21711;49.708;18.568;2022-10-31T05:26:00;23.42;;;9.60;;
31347;SDS011;21711;49.708;18.568;2022-10-31T05:28:28;20.63;;;9.88;;
31347;SDS011;21711;49.708;18.568;2022-10-31T05:30:56;15.55;;;8.25;;
31347;SDS011;21711;49.708;18.568;2022-10-31T05:33:23;20.10;;;9.25;;
31347;SDS011;21711;49.708;18.568;2022-10-31T05:36:09;20.45;;;8.65;;
31347;SDS011;21711;49.708;18.568;2022-10-31T05:38:55;18.85;;;7.95;;
31347;SDS011;21711;49.708;18.568;2022-10-31T05:41:25;20.60;;;7.97;;
31347;SDS011;21711;49.708;18.568;2022-10-31T05:44:01;21.40;;;8.95;;
31347;SDS011;21711;49.708;18.568;2022-10-31T05:46:31;20.15;;;9.02;;
31347;SDS011;21711;49.708;18.568;2022-10-31T05:49:18;17.38;;;9.05;;
31347;SDS011;21711;49.708;18.568;2022-10-31T05:52:04;23.20;;;9.68;;
31347;SDS011;21711;49.708;18.568;2022-10-31T05:54:38;17.70;;;7.80;;
31347;SDS011;21711;49.708;18.568;2022-10-31T05:57:05;22.52;;;8.77;;
31347;SDS011;21711;49.708;18.568;2022-10-31T05:59:33;20.40;;;8.75;;
31347;SDS011;21711;49.708;18.568;2022-10-31T06:02:00;19.35;;;8.45;;
31347;SDS011;21711;49.708;18.568;2022-10-31T06:04:54;21.35;;;8.82;;
31347;SDS011;21711;49.708;18.568;2022-10-31T06:07:21;17.30;;;7.97;;
31347;SDS011;21711;49.708;18.568;2022-10-31T06:09:49;19.55;;;9.50;;
31347;SDS011;21711;49.708;18.568;2022-10-31T06:12:19;20.65;;;9.85;;
31347;SDS011;21711;49.708;18.568;2022-10-31T06:15:14;18.90;;;9.77;;
31347;SDS011;21711;49.708;18.568;2022-10-31T06:17:57;16.27;;;8.88;;
31347;SDS011;21711;49.708;18.568;2022-10-31T06:20:33;14.88;;;8.10;;
31347;SDS011;21711;49.708;18.568;2022-10-31T06:23:02;15.60;;;7.75;;
31347;SDS011;21711;49.708;18.568;2022-10-31T06:25:32;17.40;;;8.03;;
31347;SDS011;21711;49.708;18.568;2022-10-31T06:27:59;18.70;;;6.97;;
31347;SDS011;21711;49.708;18.568;2022-10-31T06:30:40;14.35;;;6.57;;
31347;SDS011;21711;49.708;18.568;2022-10-31T06:33:07;13.07;;;7.00;;
31347;SDS011;21711;49.708;18.568;2022-10-31T06:35:37;14.52;;;7.50;;
31347;SDS011;21711;49.708;18.568;2022-10-31T06:38:05;12.43;;;6.20;;
31347;SDS011;21711;49.708;18.568;2022-10-31T06:40:36;14.13;;;5.95;;
31347;SDS011;21711;49.708;18.568;2022-10-31T06:43:30;11.50;;;6.05;;
31347;SDS011;21711;49.708;18.568;2022-10-31T06:46:15;11.10;;;6.82;;
31347;SDS011;21711;49.708;18.568;2022-10-31T06:48:55;11.27;;;5.28;;
31347;SDS011;21711;49.708;18.568;2022-10-31T06:51:43;10.00;;;5.68;;
31347;SDS011;21711;49.708;18.568;2022-10-31T06:54:15;14.40;;;5.68;;
31347;SDS011;21711;49.708;18.568;2022-10-31T06:56:46;13.80;;;5.43;;
31347;SDS011;21711;49.708;18.568;2022-10-31T06:59:15;15.73;;;5.53;;
31347;SDS011;21711;49.708;18.568;2022-10-31T07:02:04;10.25;;;4.60;;
31347;SDS011;21711;49.708;18.568;2022-10-31T07:04:32;6.72;;;4.18;;
31347;SDS011;21711;49.708;18.568;2022-10-31T07:07:00;9.32;;;5.13;;
31347;SDS011;21711;49.708;18.568;2022-10-31T07:09:28;12.35;;;5.07;;
31347;SDS011;21711;49.708;18.568;2022-10-31T07:11:59;10.00;;;4.75;;
31347;SDS011;21711;49.708;18.568;2022-10-31T07:14:28;9.18;;;4.07;;
31347;SDS011;21711;49.708;18.568;2022-10-31T07:16:55;11.95;;;4.30;;
31347;SDS011;21711;49.708;18.568;2022-10-31T07:19:30;10.93;;;4.03;;
31347;SDS011;21711;49.708;18.568;2022-10-31T07:21:57;7.55;;;3.35;;
31347;SDS011;21711;49.708;18.568;2022-10-31T07:24:27;7.35;;;3.67;;
31347;SDS011;21711;49.708;18.568;2022-10-31T07:26:54;7.13;;;4.20;;
31347;SDS011;21711;49.708;18.568;2022-10-31T07:29:21;8.85;;;3.67;;
31347;SDS011;21711;49.708;18.568;2022-10-31T07:31:49;8.40;;;3.88;;
31347;SDS011;21711;49.708;18.568;2022-10-31T07:34:23;8.82;;;3.53;;
31347;SDS011;21711;49.708;18.568;2022-10-31T07:37:09;8.73;;;4.00;;
31347;SDS011;21711;49.708;18.568;2022-10-31T07:39:36;11.70;;;4.07;;
31347;SDS011;21711;49.708;18.568;2022-10-31T07:42:04;9.43;;;4.35;;
31347;SDS011;21711;49.708;18.568;2022-10-31T07:44:33;9.27;;;4.13;;
31347;SDS011;21711;49.708;18.568;2022-10-31T07:47:20;14.80;;;4.25;;
31347;SDS011;21711;49.708;18.568;2022-10-31T07:50:07;11.38;;;4.57;;
31347;SDS011;21711;49.708;18.568;2022-10-31T07:53:05;13.35;;;5.32;;
31347;SDS011;21711;49.708;18.568;2022-10-31T07:55:48;9.50;;;4.47;;
31347;SDS011;21711;49.708;18.568;2022-10-31T07:58:18;11.90;;;5.22;;
31347;SDS011;21711;49.708;18.568;2022-10-31T08:00:46;14.38;;;4.88;;
31347;SDS011;21711;49.708;18.568;2022-10-31T08:03:24;12.15;;;4.40;;
31347;SDS011;21711;49.708;18.568;2022-10-31T08:06:10;8.68;;;3.85;;
31347;SDS011;21711;49.708;18.568;2022-10-31T08:08:57;10.23;;;4.63;;
31347;SDS011;21711;49.708;18.568;2022-10-31T08:11:25;8.35;;;4.85;;
31347;SDS011;21711;49.708;18.568;2022-10-31T08:13:53;10.57;;;4.50;;
31347;SDS011;21711;49.708;18.568;2022-10-31T08:16:20;8.63;;;3.97;;
31347;SDS011;21711;49.708;18.568;2022-10-31T08:18:58;10.43;;;3.97;;
31347;SDS011;21711;49.708;18.568;2022-10-31T08:21:27;11.30;;;4.38;;
31347;SDS011;21711;49.708;18.568;2022-10-31T08:23:55;11.98;;;4.32;;
31347;SDS011;21711;49.708;18.568;2022-10-31T08:26:23;9.50;;;4.57;;
31347;SDS011;21711;49.708;18.568;2022-10-31T08:28:53;11.07;;;3.65;;
31347;SDS011;21711;49.708;18.568;2022-10-31T08:31:23;10.55;;;4.50;;
31347;SDS011;21711;49.708;18.568;2022-10-31T08:34:37;11.05;;;3.97;;
31347;SDS011;21711;49.708;18.568;2022-10-31T08:37:23;10.65;;;4.53;;
31347;SDS011;21711;49.708;18.568;2022-10-31T08:39:53;7.50;;;4.03;;
31347;SDS011;21711;49.708;18.568;2022-10-31T08:42:20;13.85;;;4.65;;
31347;SDS011;21711;49.708;18.568;2022-10-31T08:44:48;12.20;;;4.45;;
31347;SDS011;21711;49.708;18.568;2022-10-31T08:47:17;10.02;;;4.10;;
31347;SDS011;21711;49.708;18.568;2022-10-31T08:49:44;11.95;;;4.70;;
31347;SDS011;21711;49.708;18.568;2022-10-31T08:52:12;10.73;;;4.65;;
31347;SDS011;21711;49.708;18.568;2022-10-31T08:54:42;9.10;;;4.32;;
31347;SDS011;21711;49.708;18.568;2022-10-31T08:57:30;11.65;;;4.25;;
31347;SDS011;21711;49.708;18.568;2022-10-31T08:59:58;8.85;;;4.63;;
31347;SDS011;21711;49.708;18.568;2022-10-31T09:02:56;11.13;;;4.75;;
31347;SDS011;21711;49.708;18.568;2022-10-31T09:05:32;8.52;;;4.43;;
31347;SDS011;21711;49.708;18.568;2022-10-31T09:08:01;11.15;;;5.35;;
31347;SDS011;21711;49.708;18.568;2022-10-31T09:10:31;13.27;;;4.90;;
31347;SDS011;21711;49.708;18.568;2022-10-31T09:13:05;14.43;;;5.30;;
31347;SDS011;21711;49.708;18.568;2022-10-31T09:15:47;8.48;;;3.90;;
31347;SDS011;21711;49.708;18.568;2022-10-31T09:18:22;11.25;;;4.65;;
31347;SDS011;21711;49.708;18.568;2022-10-31T09:20:57;14.63;;;4.22;;
31347;SDS011;21711;49.708;18.568;2022-10-31T09:23:28;8.98;;;4.25;;
31347;SDS011;21711;49.708;18.568;2022-10-31T09:25:59;10.98;;;5.07;;
31347;SDS011;21711;49.708;18.568;2022-10-31T09:28:34;10.90;;;4.57;;
31347;SDS011;21711;49.708;18.568;2022-10-31T09:31:08;12.05;;;4.80;;
31347;SDS011;21711;49.708;18.568;2022-10-31T09:33:47;11.85;;;5.20;;
31347;SDS011;21711;49.708;18.568;2022-10-31T09:36:33;13.73;;;5.60;;
31347;SDS011;21711;49.708;18.568;2022-10-31T09:39:02;9.48;;;4.70;;
31347;SDS011;21711;49.708;18.568;2022-10-31T09:44:22;11.23;;;4.75;;
31347;SDS011;21711;49.708;18.568;2022-10-31T09:50:48;11.88;;;4.95;;
31347;SDS011;21711;49.708;18.568;2022-10-31T09:53:49;10.55;;;4.65;;
31347;SDS011;21711;49.708;18.568;2022-10-31T09:56:22;10.52;;;5.35;;
31347;SDS011;21711;49.708;18.568;2022-10-31T09:58:55;15.02;;;4.55;;
31347;SDS011;21711;49.708;18.568;2022-10-31T10:01:39;14.18;;;4.90;;
31347;SDS011;21711;49.708;18.568;2022-10-31T10:10:13;12.70;;;4.93;;
31347;SDS011;21711;49.708;18.568;2022-10-31T10:25:14;15.20;;;5.18;;
31347;SDS011;21711;49.708;18.568;2022-10-31T10:30:47;13.75;;;4.97;;
31347;SDS011;21711;49.708;18.568;2022-10-31T10:33:47;16.58;;;4.80;;
31347;SDS011;21711;49.708;18.568;2022-10-31T10:36:58;11.73;;;4.20;;
31347;SDS011;21711;49.708;18.568;2022-10-31T10:42:46;10.55;;;4.38;;
31347;SDS011;21711;49.708;18.568;2022-10-31T10:45:49;8.95;;;4.13;;
31347;SDS011;21711;49.708;18.568;2022-10-31T10:55:20;9.27;;;4.13;;
31347;SDS011;21711;49.708;18.568;2022-10-31T10:58:08;14.52;;;4.82;;
31347;SDS011;21711;49.708;18.568;2022-10-31T11:00:44;10.25;;;4.15;;
31347;SDS011;21711;49.708;18.568;2022-10-31T11:03:14;12.88;;;4.47;;
31347;SDS011;21711;49.708;18.568;2022-10-31T11:05:50;9.63;;;4.05;;
31347;SDS011;21711;49.708;18.568;2022-10-31T11:08:34;11.85;;;5.95;;
31347;SDS011;21711;49.708;18.568;2022-10-31T11:14:13;11.38;;;4.88;;
31347;SDS011;21711;49.708;18.568;2022-10-31T11:16:44;10.75;;;4.47;;
31347;SDS011;21711;49.708;18.568;2022-10-31T11:19:19;9.43;;;4.70;;
31347;SDS011;21711;49.708;18.568;2022-10-31T11:21:52;17.17;;;5.47;;
31347;SDS011;21711;49.708;18.568;2022-10-31T11:24:21;12.38;;;4.63;;
31347;SDS011;21711;49.708;18.568;2022-10-31T11:27:03;8.65;;;4.78;;
31347;SDS011;21711;49.708;18.568;2022-10-31T11:29:41;13.68;;;4.97;;
31347;SDS011;21711;49.708;18.568;2022-10-31T11:32:25;9.27;;;4.47;;
31347;SDS011;21711;49.708;18.568;2022-10-31T11:34:54;16.80;;;4.65;;
31347;SDS011;21711;49.708;18.568;2022-10-31T11:37:32;10.95;;;5.18;;
31347;SDS011;21711;49.708;18.568;2022-10-31T11:40:04;14.10;;;5.40;;
31347;SDS011;21711;49.708;18.568;2022-10-31T11:42:37;12.40;;;4.85;;
31347;SDS011;21711;49.708;18.568;2022-10-31T11:45:13;11.10;;;4.90;;
31347;SDS011;21711;49.708;18.568;2022-10-31T11:50:37;12.30;;;4.60;;
31347;SDS011;21711;49.708;18.568;2022-10-31T11:53:12;12.90;;;5.00;;
31347;SDS011;21711;49.708;18.568;2022-10-31T11:58:42;12.20;;;4.85;;
31347;SDS011;21711;49.708;18.568;2022-10-31T12:01:23;14.10;;;5.35;;
31347;SDS011;21711;49.708;18.568;2022-10-31T12:04:10;8.77;;;4.75;;
31347;SDS011;21711;49.708;18.568;2022-10-31T12:06:39;10.73;;;5.15;;
31347;SDS011;21711;49.708;18.568;2022-10-31T12:09:50;8.30;;;4.78;;
31347;SDS011;21711;49.708;18.568;2022-10-31T12:15:20;11.63;;;5.22;;
31347;SDS011;21711;49.708;18.568;2022-10-31T12:21:12;17.30;;;5.50;;
31347;SDS011;21711;49.708;18.568;2022-10-31T12:40:49;15.40;;;7.00;;
31347;SDS011;21711;49.708;18.568;2022-10-31T12:43:34;14.40;;;7.38;;
31347;SDS011;21711;49.708;18.568;2022-10-31T12:56:18;17.42;;;7.75;;
31347;SDS011;21711;49.708;18.568;2022-10-31T12:59:24;16.70;;;6.30;;
31347;SDS011;21711;49.708;18.568;2022-10-31T13:02:03;12.25;;;6.43;;
31347;SDS011;21711;49.708;18.568;2022-10-31T13:05:05;16.42;;;7.00;;
31347;SDS011;21711;49.708;18.568;2022-10-31T13:08:03;16.15;;;7.85;;
31347;SDS011;21711;49.708;18.568;2022-10-31T13:11:10;20.35;;;7.13;;
31347;SDS011;21711;49.708;18.568;2022-10-31T13:17:00;16.58;;;6.93;;
31347;SDS011;21711;49.708;18.568;2022-10-31T13:19:30;18.13;;;6.75;;
31347;SDS011;21711;49.708;18.568;2022-10-31T13:22:12;18.05;;;7.13;;
31347;SDS011;21711;49.708;18.568;2022-10-31T13:24:49;22.15;;;6.97;;
31347;SDS011;21711;49.708;18.568;2022-10-31T13:30:23;19.55;;;6.97;;
31347;SDS011;21711;49.708;18.568;2022-10-31T13:35:30;16.95;;;6.30;;
31347;SDS011;21711;49.708;18.568;2022-10-31T13:40:58;13.82;;;5.75;;
31347;SDS011;21711;49.708;18.568;2022-10-31T13:49:00;21.65;;;6.95;;
31347;SDS011;21711;49.708;18.568;2022-10-31T13:51:28;13.88;;;5.70;;
31347;SDS011;21711;49.708;18.568;2022-10-31T13:54:01;16.15;;;6.53;;
31347;SDS011;21711;49.708;18.568;2022-10-31T13:56:50;11.70;;;5.38;;
31347;SDS011;21711;49.708;18.568;2022-10-31T13:59:20;10.30;;;6.07;;
31347;SDS011;21711;49.708;18.568;2022-10-31T14:01:51;14.70;;;5.97;;
31347;SDS011;21711;49.708;18.568;2022-10-31T14:04:25;16.08;;;6.38;;
31347;SDS011;21711;49.708;18.568;2022-10-31T14:07:06;14.02;;;6.00;;
31347;SDS011;21711;49.708;18.568;2022-10-31T14:09:52;18.10;;;6.20;;
31347;SDS011;21711;49.708;18.568;2022-10-31T14:12:43;11.90;;;6.68;;
31347;SDS011;21711;49.708;18.568;2022-10-31T14:15:26;15.40;;;6.18;;
31347;SDS011;21711;49.708;18.568;2022-10-31T14:23:33;17.05;;;5.93;;
31347;SDS011;21711;49.708;18.568;2022-10-31T14:28:57;14.13;;;5.00;;
31347;SDS011;21711;49.708;18.568;2022-10-31T14:31:53;11.00;;;4.88;;
31347;SDS011;21711;49.708;18.568;2022-10-31T14:40:21;12.98;;;5.10;;
31347;SDS011;21711;49.708;18.568;2022-10-31T14:43:04;12.45;;;4.60;;
31347;SDS011;21711;49.708;18.568;2022-10-31T14:51:35;9.07;;;4.60;;
31347;SDS011;21711;49.708;18.568;2022-10-31T14:54:07;16.70;;;4.80;;
31347;SDS011;21711;49.708;18.568;2022-10-31T14:57:29;14.13;;;4.82;;
31347;SDS011;21711;49.708;18.568;2022-10-31T15:00:02;13.50;;;4.40;;
31347;SDS011;21711;49.708;18.568;2022-10-31T15:05:16;10.95;;;4.30;;
31347;SDS011;21711;49.708;18.568;2022-10-31T15:07:48;16.95;;;4.68;;
31347;SDS011;21711;49.708;18.568;2022-10-31T15:10:32;13.02;;;4.35;;
31347;SDS011;21711;49.708;18.568;2022-10-31T15:13:40;12.55;;;4.40;;
31347;SDS011;21711;49.708;18.568;2022-10-31T15:15:58;28.42;;;8.60;;
31347;SDS011;21711;49.708;18.568;2022-10-31T15:18:26;100.72;;;34.20;;
31347;SDS011;21711;49.708;18.568;2022-10-31T15:20:55;161.93;;;54.05;;
31347;SDS011;21711;49.708;18.568;2022-10-31T15:23:29;72.80;;;25.02;;
31347;SDS011;21711;49.708;18.568;2022-10-31T15:26:01;45.70;;;17.60;;
31347;SDS011;21711;49.708;18.568;2022-10-31T15:28:31;39.90;;;13.27;;
31347;SDS011;21711;49.708;18.568;2022-10-31T15:30:59;31.20;;;11.52;;
31347;SDS011;21711;49.708;18.568;2022-10-31T15:33:29;31.08;;;10.75;;
31347;SDS011;21711;49.708;18.568;2022-10-31T15:36:18;25.13;;;8.55;;
31347;SDS011;21711;49.708;18.568;2022-10-31T15:38:56;24.05;;;8.63;;
31347;SDS011;21711;49.708;18.568;2022-10-31T15:44:26;22.83;;;8.50;;
31347;SDS011;21711;49.708;18.568;2022-10-31T15:47:00;18.15;;;7.97;;
31347;SDS011;21711;49.708;18.568;2022-10-31T15:49:37;16.15;;;6.70;;
31347;SDS011;21711;49.708;18.568;2022-10-31T15:54:51;17.20;;;7.25;;
31347;SDS011;21711;49.708;18.568;2022-10-31T15:57:24;25.55;;;10.30;;
31347;SDS011;21711;49.708;18.568;2022-10-31T15:59:55;32.03;;;13.55;;
31347;SDS011;21711;49.708;18.568;2022-10-31T16:02:24;36.58;;;14.35;;
31347;SDS011;21711;49.708;18.568;2022-10-31T16:04:57;30.67;;;12.65;;
31347;SDS011;21711;49.708;18.568;2022-10-31T16:07:29;31.05;;;11.48;;
31347;SDS011;21711;49.708;18.568;2022-10-31T16:09:57;28.05;;;11.90;;
31347;SDS011;21711;49.708;18.568;2022-10-31T16:12:37;24.80;;;11.05;;
31347;SDS011;21711;49.708;18.568;2022-10-31T16:15:15;26.23;;;11.38;;
31347;SDS011;21711;49.708;18.568;2022-10-31T16:17:47;20.25;;;10.23;;
31347;SDS011;21711;49.708;18.568;2022-10-31T16:20:21;24.40;;;9.68;;
31347;SDS011;21711;49.708;18.568;2022-10-31T16:22:55;24.02;;;8.93;;
31347;SDS011;21711;49.708;18.568;2022-10-31T16:25:26;21.08;;;9.38;;
31347;SDS011;21711;49.708;18.568;2022-10-31T16:28:02;24.67;;;9.25;;
31347;SDS011;21711;49.708;18.568;2022-10-31T16:30:46;19.27;;;9.35;;
31347;SDS011;21711;49.708;18.568;2022-10-31T16:33:29;16.90;;;8.63;;
31347;SDS011;21711;49.708;18.568;2022-10-31T16:39:02;15.52;;;7.63;;
31347;SDS011;21711;49.708;18.568;2022-10-31T16:41:29;13.23;;;6.97;;
31347;SDS011;21711;49.708;18.568;2022-10-31T16:43:59;20.63;;;8.02;;
31347;SDS011;21711;49.708;18.568;2022-10-31T16:46:30;13.30;;;6.75;;
31347;SDS011;21711;49.708;18.568;2022-10-31T16:48:57;15.77;;;6.90;;
31347;SDS011;21711;49.708;18.568;2022-10-31T16:51:24;17.00;;;7.32;;
31347;SDS011;21711;49.708;18.568;2022-10-31T16:53:52;20.48;;;8.48;;
31347;SDS011;21711;49.708;18.568;2022-10-31T16:56:24;14.40;;;8.60;;
31347;SDS011;21711;49.708;18.568;2022-10-31T16:58:56;15.35;;;7.85;;
31347;SDS011;21711;49.708;18.568;2022-10-31T17:01:24;18.00;;;8.60;;
31347;SDS011;21711;49.708;18.568;2022-10-31T17:03:52;28.33;;;9.60;;
31347;SDS011;21711;49.708;18.568;2022-10-31T17:06:19;18.45;;;8.30;;
31347;SDS011;21711;49.708;18.568;2022-10-31T17:08:47;20.73;;;10.38;;
31347;SDS011;21711;49.708;18.568;2022-10-31T17:11:18;24.55;;;10.18;;
31347;SDS011;21711;49.708;18.568;2022-10-31T17:13:50;25.42;;;11.00;;
31347;SDS011;21711;49.708;18.568;2022-10-31T17:16:18;23.75;;;9.43;;
31347;SDS011;21711;49.708;18.568;2022-10-31T17:18:46;19.63;;;9.50;;
31347;SDS011;21711;49.708;18.568;2022-10-31T17:21:31;19.95;;;9.93;;
31347;SDS011;21711;49.708;18.568;2022-10-31T17:23:59;20.95;;;10.00;;
31347;SDS011;21711;49.708;18.568;2022-10-31T17:26:26;20.17;;;9.48;;
31347;SDS011;21711;49.708;18.568;2022-10-31T17:28:53;23.38;;;10.80;;
31347;SDS011;21711;49.708;18.568;2022-10-31T17:31:22;18.38;;;9.38;;
31347;SDS011;21711;49.708;18.568;2022-10-31T17:33:54;24.20;;;10.85;;
31347;SDS011;21711;49.708;18.568;2022-10-31T17:36:29;22.33;;;10.43;;
31347;SDS011;21711;49.708;18.568;2022-10-31T17:38:57;19.63;;;10.63;;
31347;SDS011;21711;49.708;18.568;2022-10-31T17:41:25;21.50;;;8.45;;
31347;SDS011;21711;49.708;18.568;2022-10-31T17:43:56;20.40;;;9.05;;
31347;SDS011;21711;49.708;18.568;2022-10-31T17:46:25;30.65;;;9.25;;
31347;SDS011;21711;49.708;18.568;2022-10-31T17:48:53;28.92;;;10.00;;
31347;SDS011;21711;49.708;18.568;2022-10-31T17:51:21;22.58;;;10.23;;
31347;SDS011;21711;49.708;18.568;2022-10-31T17:53:48;20.73;;;8.15;;
31347;SDS011;21711;49.708;18.568;2022-10-31T17:56:15;26.55;;;11.85;;
31347;SDS011;21711;49.708;18.568;2022-10-31T17:58:43;23.13;;;11.00;;